Time;durP1;ratioP1;P1;durP2;ratioP2;P2;SDS_P1;SDS_P2;PMS_P1;PMS_P2;Temp;Humidity;BMP_temperature;BMP_pressure;BME280_temperature;BME280_humidity;BME280_pressure;Samples;Min_cycle;Max_cycle;Signal;HPM_P1;HPM_P2
2023/10/08 00:02:09;;;;;;;19.93;6.10;;;;;;;;;;5068039;28;20049;-61
2023/10/08 00:04:38;;;;;;;15.17;5.30;;;;;;;;;;5065035;28;20051;-61
2023/10/08 00:07:08;;;;;;;14.43;4.53;;;;;;;;;;5068138;28;20052;-61
2023/10/08 00:09:37;;;;;;;10.23;3.83;;;;;;;;;;5067946;28;20560;-61
2023/10/08 00:12:03;;;;;;;12.07;4.10;;;;;;;;;;5067754;28;20502;-61
2023/10/08 00:14:29;;;;;;;8.60;3.70;;;;;;;;;;5068243;28;20418;-61
2023/10/08 00:16:55;;;;;;;7.00;3.60;;;;;;;;;;5067273;28;20067;-61
2023/10/08 00:19:21;;;;;;;6.87;3.60;;;;;;;;;;5067716;28;20044;-61
2023/10/08 00:21:48;;;;;;;4.57;2.63;;;;;;;;;;5067461;28;20093;-61
2023/10/08 00:24:15;;;;;;;5.70;1.40;;;;;;;;;;5067832;28;20134;-61
2023/10/08 00:26:41;;;;;;;5.30;1.23;;;;;;;;;;5067661;28;20117;-61
2023/10/08 00:29:21;;;;;;;2.07;1.10;;;;;;;;;;5067782;28;20048;-61
2023/10/08 00:31:49;;;;;;;3.23;1.23;;;;;;;;;;5067219;28;20090;-61
2023/10/08 00:34:16;;;;;;;4.23;1.20;;;;;;;;;;5067456;28;20048;-61
2023/10/08 00:36:42;;;;;;;3.90;1.60;;;;;;;;;;5058687;28;20056;-61
2023/10/08 00:39:13;;;;;;;2.40;1.17;;;;;;;;;;5047506;28;20049;-61
2023/10/08 00:41:43;;;;;;;3.30;1.23;;;;;;;;;;5047617;28;20132;-60
2023/10/08 00:44:22;;;;;;;2.73;1.13;;;;;;;;;;5047746;28;20406;-61
2023/10/08 00:46:48;;;;;;;5.40;1.40;;;;;;;;;;5047227;28;20045;-61
2023/10/08 00:49:24;;;;;;;6.93;2.43;;;;;;;;;;5047320;28;20502;-61
2023/10/08 00:52:25;;;;;;;4.07;1.60;;;;;;;;;;5047392;28;20053;-61
2023/10/08 00:57:34;;;;;;;4.37;1.60;;;;;;;;;;5047319;28;21139;-61
2023/10/08 01:00:00;;;;;;;5.63;1.53;;;;;;;;;;5047127;28;20044;-61
2023/10/08 01:02:28;;;;;;;4.33;1.40;;;;;;;;;;5047711;28;20392;-61
2023/10/08 01:04:55;;;;;;;2.97;1.20;;;;;;;;;;5048327;28;20507;-61
2023/10/08 01:07:25;;;;;;;2.80;1.00;;;;;;;;;;5050958;28;20045;-61
2023/10/08 01:09:51;;;;;;;5.57;1.37;;;;;;;;;;5051298;28;20056;-61
2023/10/08 01:14:46;;;;;;;4.20;1.40;;;;;;;;;;5064670;28;20101;-61
2023/10/08 01:17:15;;;;;;;4.67;1.50;;;;;;;;;;5050390;28;20049;-61
2023/10/08 01:19:42;;;;;;;3.47;1.37;;;;;;;;;;5067062;28;20056;-61
2023/10/08 01:22:17;;;;;;;2.70;1.50;;;;;;;;;;5061992;28;20049;-60
2023/10/08 01:24:44;;;;;;;7.40;2.00;;;;;;;;;;5051250;28;20041;-61
2023/10/08 01:27:12;;;;;;;4.27;2.07;;;;;;;;;;5059312;28;20044;-60
2023/10/08 01:29:44;;;;;;;4.40;1.87;;;;;;;;;;5071270;28;20561;-61
2023/10/08 01:32:11;;;;;;;5.20;2.23;;;;;;;;;;5070430;28;20056;-61
2023/10/08 01:34:37;;;;;;;4.70;2.40;;;;;;;;;;5066536;28;20510;-61
2023/10/08 01:37:08;;;;;;;4.60;2.53;;;;;;;;;;5050776;28;20053;-61
2023/10/08 01:39:36;;;;;;;4.40;2.23;;;;;;;;;;5050982;28;20546;-61
2023/10/08 01:42:02;;;;;;;5.33;2.70;;;;;;;;;;5050286;28;20048;-61
2023/10/08 01:44:30;;;;;;;4.17;2.47;;;;;;;;;;5050464;28;20503;-61
2023/10/08 01:46:58;;;;;;;4.50;2.70;;;;;;;;;;5050933;28;20457;-61
2023/10/08 01:49:29;;;;;;;3.93;2.33;;;;;;;;;;5050754;28;20055;-61
2023/10/08 01:51:57;;;;;;;5.32;2.65;;;;;;;;;;5050581;28;20091;-60
2023/10/08 01:54:26;;;;;;;5.17;2.20;;;;;;;;;;5050311;28;20126;-61
2023/10/08 01:56:51;;;;;;;6.30;2.70;;;;;;;;;;5049941;28;20059;-61
2023/10/08 01:59:18;;;;;;;5.67;2.83;;;;;;;;;;5050871;28;20049;-61
2023/10/08 02:01:45;;;;;;;3.63;2.17;;;;;;;;;;5050572;28;20059;-61
2023/10/08 02:04:12;;;;;;;3.87;2.50;;;;;;;;;;5050697;28;20099;-61
2023/10/08 02:06:39;;;;;;;6.23;2.50;;;;;;;;;;5069181;28;20568;-61
2023/10/08 02:09:07;;;;;;;3.30;2.30;;;;;;;;;;5069681;28;20123;-61
2023/10/08 02:11:43;;;;;;;6.20;2.63;;;;;;;;;;5071319;28;20467;-61
2023/10/08 02:14:09;;;;;;;4.10;2.40;;;;;;;;;;5069065;28;20044;-61
2023/10/08 02:16:37;;;;;;;4.07;2.20;;;;;;;;;;5067728;28;20411;-61
2023/10/08 02:19:03;;;;;;;4.37;1.90;;;;;;;;;;5059032;28;20053;-61
2023/10/08 02:21:29;;;;;;;5.53;2.60;;;;;;;;;;5070814;28;20048;-61
2023/10/08 02:23:56;;;;;;;5.50;2.17;;;;;;;;;;5058358;28;20074;-61
2023/10/08 02:26:23;;;;;;;3.87;2.30;;;;;;;;;;5051061;28;20102;-61
2023/10/08 02:28:51;;;;;;;11.00;2.53;;;;;;;;;;5061021;28;20071;-61
2023/10/08 02:31:18;;;;;;;3.60;2.47;;;;;;;;;;5070121;28;20063;-61
2023/10/08 02:33:44;;;;;;;3.50;2.30;;;;;;;;;;5070033;28;20059;-60
2023/10/08 02:36:10;;;;;;;4.80;2.63;;;;;;;;;;5070829;28;20392;-61
2023/10/08 02:38:38;;;;;;;3.83;2.53;;;;;;;;;;5056580;28;20429;-61
2023/10/08 02:41:07;;;;;;;4.60;2.60;;;;;;;;;;5053666;28;20053;-61
2023/10/08 02:43:36;;;;;;;6.57;2.40;;;;;;;;;;5051974;28;20068;-61
2023/10/08 02:46:14;;;;;;;4.10;2.13;;;;;;;;;;5067460;28;20075;-61
2023/10/08 02:48:40;;;;;;;3.83;2.30;;;;;;;;;;5068853;28;20077;-61
2023/10/08 02:51:15;;;;;;;3.50;1.90;;;;;;;;;;5062223;28;20033;-61
2023/10/08 02:53:43;;;;;;;5.10;2.23;;;;;;;;;;5059584;28;20102;-60
2023/10/08 02:56:15;;;;;;;5.23;1.70;;;;;;;;;;5065271;28;20117;-61
2023/10/08 02:58:43;;;;;;;3.93;1.80;;;;;;;;;;5069535;28;20041;-61
2023/10/08 03:01:12;;;;;;;5.37;1.97;;;;;;;;;;5070008;28;20052;-61
2023/10/08 03:03:39;;;;;;;3.53;1.70;;;;;;;;;;5069619;28;20047;-61
2023/10/08 03:06:11;;;;;;;4.20;1.60;;;;;;;;;;5061610;28;20094;-61
2023/10/08 03:08:38;;;;;;;3.33;1.53;;;;;;;;;;5050946;28;20056;-61
2023/10/08 03:11:05;;;;;;;3.03;1.53;;;;;;;;;;5069702;28;20044;-61
2023/10/08 03:13:31;;;;;;;3.37;1.67;;;;;;;;;;5069064;28;20055;-61
2023/10/08 03:18:26;;;;;;;2.47;1.37;;;;;;;;;;5069227;28;20569;-61
2023/10/08 03:20:52;;;;;;;4.03;1.67;;;;;;;;;;5069499;28;20047;-61
2023/10/08 03:23:23;;;;;;;2.03;1.27;;;;;;;;;;5069115;28;20045;-61
2023/10/08 03:26:00;;;;;;;3.63;1.23;;;;;;;;;;5069410;28;20040;-61
2023/10/08 03:28:27;;;;;;;3.37;1.40;;;;;;;;;;5068822;28;20045;-62
2023/10/08 03:31:02;;;;;;;4.07;1.70;;;;;;;;;;5068640;28;20522;-61
2023/10/08 03:33:29;;;;;;;3.97;1.37;;;;;;;;;;5069132;28;20169;-63
2023/10/08 03:35:55;;;;;;;4.50;1.60;;;;;;;;;;5068977;28;20139;-63
2023/10/08 03:38:28;;;;;;;4.63;1.27;;;;;;;;;;5068981;28;20092;-61
2023/10/08 03:40:57;;;;;;;4.15;1.50;;;;;;;;;;5068127;28;20430;-61
2023/10/08 03:43:33;;;;;;;9.50;1.70;;;;;;;;;;5068523;28;20448;-61
2023/10/08 03:46:05;;;;;;;5.37;1.67;;;;;;;;;;5068353;28;20125;-61
2023/10/08 03:48:36;;;;;;;3.73;1.73;;;;;;;;;;5060600;28;20151;-60
2023/10/08 03:51:06;;;;;;;6.57;1.70;;;;;;;;;;5047900;28;20135;-61
2023/10/08 03:53:43;;;;;;;5.60;1.80;;;;;;;;;;5048308;28;20049;-61
2023/10/08 03:56:19;;;;;;;5.13;1.58;;;;;;;;;;5048165;28;20064;-61
2023/10/08 03:58:46;;;;;;;6.47;2.20;;;;;;;;;;5048264;28;20203;-61
2023/10/08 04:01:18;;;;;;;4.37;1.90;;;;;;;;;;5048042;28;20499;-61
2023/10/08 04:06:22;;;;;;;3.80;2.33;;;;;;;;;;5047801;28;20686;-61
2023/10/08 04:11:35;;;;;;;5.07;2.37;;;;;;;;;;5047288;28;20053;-61
2023/10/08 04:14:03;;;;;;;9.27;2.20;;;;;;;;;;5047597;28;20052;-60
2023/10/08 04:16:30;;;;;;;6.03;2.50;;;;;;;;;;5047760;28;20652;-61
2023/10/08 04:18:56;;;;;;;6.27;2.20;;;;;;;;;;5049464;28;20045;-60
2023/10/08 04:21:27;;;;;;;8.23;2.47;;;;;;;;;;5047364;28;20048;-61
2023/10/08 04:23:53;;;;;;;5.10;2.50;;;;;;;;;;5047770;28;20052;-61
2023/10/08 04:26:23;;;;;;;8.13;2.90;;;;;;;;;;5048006;28;20052;-61
2023/10/08 04:28:50;;;;;;;6.77;2.37;;;;;;;;;;5048273;28;20131;-61
2023/10/08 04:31:16;;;;;;;7.03;2.13;;;;;;;;;;5047741;28;20080;-61
2023/10/08 04:33:44;;;;;;;6.20;2.70;;;;;;;;;;5047410;28;20056;-61
2023/10/08 04:36:17;;;;;;;5.13;2.00;;;;;;;;;;5048171;28;20423;-60
2023/10/08 04:38:45;;;;;;;;;;;;;;;;;;5048083;28;20067;-61
2023/10/08 04:41:11;;;;;;;12.30;3.30;;;;;;;;;;5052082;28;19921;-61
2023/10/08 04:43:37;;;;;;;7.47;2.70;;;;;;;;;;5052846;28;20056;-61
2023/10/08 04:46:21;;;;;;;4.37;2.33;;;;;;;;;;5051916;28;20057;-61
2023/10/08 04:48:49;;;;;;;8.37;3.00;;;;;;;;;;5052544;28;20057;-60
2023/10/08 04:51:17;;;;;;;5.97;3.00;;;;;;;;;;5052732;28;20052;-61
2023/10/08 04:53:45;;;;;;;6.93;3.40;;;;;;;;;;5051946;28;20049;-61
2023/10/08 04:56:18;;;;;;;12.23;3.83;;;;;;;;;;5051829;28;20106;-62
2023/10/08 04:58:47;;;;;;;6.85;3.30;;;;;;;;;;5054603;28;20045;-61
2023/10/08 05:01:17;;;;;;;9.83;3.30;;;;;;;;;;5052381;28;20049;-61
2023/10/08 05:09:10;;;;;;;10.90;4.13;;;;;;;;;;5052852;28;20060;-61
2023/10/08 05:11:46;;;;;;;11.07;4.33;;;;;;;;;;5058091;28;20506;-61
2023/10/08 05:19:50;;;;;;;8.73;3.70;;;;;;;;;;5051775;28;20124;-61
2023/10/08 05:30:25;;;;;;;7.57;3.10;;;;;;;;;;5058130;28;20048;-61
2023/10/08 05:35:38;;;;;;;6.77;3.13;;;;;;;;;;5050898;28;20091;-61
2023/10/08 05:38:15;;;;;;;6.53;3.00;;;;;;;;;;5050939;28;20057;-61
2023/10/08 05:43:55;;;;;;;7.97;3.07;;;;;;;;;;5051180;28;20088;-60
2023/10/08 05:54:35;;;;;;;7.67;2.77;;;;;;;;;;5051471;28;20059;-61
2023/10/08 05:57:14;;;;;;;8.53;3.07;;;;;;;;;;5057873;28;20045;-61
2023/10/08 06:05:22;;;;;;;9.03;2.87;;;;;;;;;;5050389;28;20095;-61
2023/10/08 06:10:42;;;;;;;10.00;2.70;;;;;;;;;;5090333;28;20071;-61
2023/10/08 06:13:43;;;;;;;15.67;3.13;;;;;;;;;;5070047;28;20051;-61
2023/10/08 06:16:13;;;;;;;16.80;3.20;;;;;;;;;;5050826;28;20044;-61
2023/10/08 06:18:39;;;;;;;19.07;3.43;;;;;;;;;;5063989;28;20052;-61
2023/10/08 06:21:08;;;;;;;9.37;2.97;;;;;;;;;;5050350;28;20383;-62
2023/10/08 06:23:35;;;;;;;11.73;3.30;;;;;;;;;;5067950;28;20045;-62
2023/10/08 06:28:38;;;;;;;18.93;4.20;;;;;;;;;;5065589;28;20063;-62
2023/10/08 06:31:11;;;;;;;13.40;3.80;;;;;;;;;;5050991;28;20041;-62
2023/10/08 06:33:38;;;;;;;10.75;3.72;;;;;;;;;;5068526;28;20040;-62
2023/10/08 06:36:13;;;;;;;13.60;3.83;;;;;;;;;;5052205;28;20159;-62
2023/10/08 06:38:51;;;;;;;16.33;4.47;;;;;;;;;;5050210;28;20056;-62
2023/10/08 06:41:24;;;;;;;11.00;4.07;;;;;;;;;;5065076;28;20178;-62
2023/10/08 06:44:02;;;;;;;12.57;3.17;;;;;;;;;;5069253;28;20067;-62
2023/10/08 06:46:29;;;;;;;10.20;3.50;;;;;;;;;;5059062;28;20411;-62
2023/10/08 06:48:55;;;;;;;7.97;3.07;;;;;;;;;;5061675;28;20060;-62
2023/10/08 06:51:21;;;;;;;14.40;3.73;;;;;;;;;;5069097;28;20048;-62
2023/10/08 06:53:48;;;;;;;16.93;3.60;;;;;;;;;;5068559;28;20048;-62
2023/10/08 06:56:15;;;;;;;9.73;3.90;;;;;;;;;;5068037;28;20045;-62
2023/10/08 06:58:53;;;;;;;13.47;3.50;;;;;;;;;;5067746;28;20406;-62
2023/10/08 07:01:38;;;;;;;9.60;3.80;;;;;;;;;;5060630;28;20131;-62
2023/10/08 07:04:06;;;;;;;8.40;2.97;;;;;;;;;;5067608;28;20520;-62
2023/10/08 07:06:33;;;;;;;11.03;3.27;;;;;;;;;;5065239;28;20052;-62
2023/10/08 07:09:00;;;;;;;13.27;4.03;;;;;;;;;;5067760;28;20040;-62
2023/10/08 07:11:27;;;;;;;11.90;3.20;;;;;;;;;;5065185;28;20051;-62
2023/10/08 07:13:53;;;;;;;12.33;3.80;;;;;;;;;;5068991;28;20040;-62
2023/10/08 07:16:20;;;;;;;9.43;3.03;;;;;;;;;;5058407;28;20043;-62
2023/10/08 07:18:55;;;;;;;10.87;4.10;;;;;;;;;;5067491;28;20113;-62
2023/10/08 07:21:28;;;;;;;7.87;3.30;;;;;;;;;;5065006;28;20542;-62
2023/10/08 07:23:59;;;;;;;9.87;3.40;;;;;;;;;;5058554;28;20074;-63
2023/10/08 07:26:39;;;;;;;10.70;3.20;;;;;;;;;;5057430;28;20062;-62
2023/10/08 07:29:09;;;;;;;11.80;3.43;;;;;;;;;;5068883;28;20044;-62
2023/10/08 07:31:36;;;;;;;15.10;4.33;;;;;;;;;;5069177;28;20072;-62
2023/10/08 07:34:18;;;;;;;8.37;3.13;;;;;;;;;;5064376;28;20052;-62
2023/10/08 07:36:49;;;;;;;14.73;3.07;;;;;;;;;;5067953;28;20048;-62
2023/10/08 07:41:56;;;;;;;11.73;3.50;;;;;;;;;;5068223;28;20079;-62
2023/10/08 07:44:23;;;;;;;8.73;3.20;;;;;;;;;;5068851;28;20049;-62
2023/10/08 07:46:54;;;;;;;8.07;3.23;;;;;;;;;;5067566;28;20047;-63
2023/10/08 07:49:20;;;;;;;13.77;2.77;;;;;;;;;;5065174;28;20124;-62
2023/10/08 07:51:50;;;;;;;11.20;3.43;;;;;;;;;;5062217;28;20395;-62
2023/10/08 07:54:22;;;;;;;12.23;2.50;;;;;;;;;;5067496;28;20498;-62
2023/10/08 07:56:48;;;;;;;11.27;2.23;;;;;;;;;;5066767;28;20552;-62
2023/10/08 07:59:16;;;;;;;11.13;2.70;;;;;;;;;;5067534;28;20044;-62
2023/10/08 08:01:42;;;;;;;8.93;2.47;;;;;;;;;;5066877;28;20051;-62
2023/10/08 08:04:10;;;;;;;7.37;2.50;;;;;;;;;;5060796;28;20057;-62
2023/10/08 08:06:37;;;;;;;13.87;2.60;;;;;;;;;;5064936;28;20056;-62
2023/10/08 08:09:09;;;;;;;11.23;2.13;;;;;;;;;;5059555;28;20050;-62
2023/10/08 08:11:36;;;;;;;10.73;2.37;;;;;;;;;;5055051;28;20072;-62
2023/10/08 08:14:07;;;;;;;9.13;2.20;;;;;;;;;;5062348;28;20062;-62
2023/10/08 08:16:36;;;;;;;10.63;2.40;;;;;;;;;;5068117;28;20044;-62
2023/10/08 08:19:02;;;;;;;9.23;2.40;;;;;;;;;;5067144;28;20052;-62
2023/10/08 08:21:30;;;;;;;10.90;3.27;;;;;;;;;;5068040;28;20063;-62
2023/10/08 08:24:05;;;;;;;11.03;2.43;;;;;;;;;;5067076;28;20498;-62
2023/10/08 08:26:39;;;;;;;7.70;2.10;;;;;;;;;;5060849;28;20127;-62
2023/10/08 08:29:08;;;;;;;9.23;2.40;;;;;;;;;;5066794;28;20483;-62
2023/10/08 08:31:35;;;;;;;10.77;2.40;;;;;;;;;;5058302;28;20041;-62
2023/10/08 08:34:19;;;;;;;7.73;2.50;;;;;;;;;;5066333;28;20048;-62
2023/10/08 08:36:49;;;;;;;10.70;2.60;;;;;;;;;;5067657;28;20044;-62
2023/10/08 08:39:28;;;;;;;8.97;2.17;;;;;;;;;;5068440;28;20041;-62
2023/10/08 08:41:58;;;;;;;8.90;2.23;;;;;;;;;;5065946;28;20055;-62
2023/10/08 08:44:29;;;;;;;7.50;1.93;;;;;;;;;;5066585;28;20080;-62
2023/10/08 08:46:58;;;;;;;4.87;2.00;;;;;;;;;;5065346;28;20052;-62
2023/10/08 08:49:24;;;;;;;10.40;2.37;;;;;;;;;;5067571;28;20055;-61
2023/10/08 08:51:53;;;;;;;9.73;2.83;;;;;;;;;;5067915;28;20045;-61
2023/10/08 08:54:20;;;;;;;10.27;2.20;;;;;;;;;;5057123;28;20087;-61
2023/10/08 08:56:47;;;;;;;12.20;3.17;;;;;;;;;;5056874;28;20514;-61
2023/10/08 08:59:13;;;;;;;13.57;2.10;;;;;;;;;;5059258;28;20084;-61
2023/10/08 09:01:40;;;;;;;7.27;2.27;;;;;;;;;;5050786;28;20049;-61
2023/10/08 09:04:06;;;;;;;8.10;2.03;;;;;;;;;;5059651;28;20049;-61
2023/10/08 09:06:39;;;;;;;7.97;1.80;;;;;;;;;;5058961;28;20091;-61
2023/10/08 09:09:25;;;;;;;9.27;1.80;;;;;;;;;;5049756;28;20544;-61
2023/10/08 09:11:52;;;;;;;9.00;2.03;;;;;;;;;;5049870;28;20037;-61
2023/10/08 09:14:22;;;;;;;7.43;1.90;;;;;;;;;;5059185;28;20430;-61
2023/10/08 09:16:48;;;;;;;5.70;2.27;;;;;;;;;;5050692;28;20064;-61
2023/10/08 09:19:18;;;;;;;3.37;1.43;;;;;;;;;;5062708;28;20049;-62
2023/10/08 09:21:44;;;;;;;10.67;2.00;;;;;;;;;;5056828;28;20380;-62
2023/10/08 09:24:11;;;;;;;12.50;2.30;;;;;;;;;;5068204;28;20127;-61
2023/10/08 09:26:37;;;;;;;8.83;2.30;;;;;;;;;;5069234;28;20052;-62
2023/10/08 09:29:07;;;;;;;9.60;1.87;;;;;;;;;;5070975;28;20139;-62
2023/10/08 09:31:35;;;;;;;10.23;1.60;;;;;;;;;;5058100;28;20055;-60
2023/10/08 09:34:02;;;;;;;8.23;1.50;;;;;;;;;;5070421;28;20517;-60
2023/10/08 09:36:31;;;;;;;9.50;1.73;;;;;;;;;;5069903;28;20070;-60
2023/10/08 09:39:04;;;;;;;5.50;1.20;;;;;;;;;;5062388;28;20049;-60
2023/10/08 09:41:31;;;;;;;7.43;1.70;;;;;;;;;;5069544;28;20502;-60
2023/10/08 09:44:04;;;;;;;7.03;1.43;;;;;;;;;;5070604;28;20287;-60
2023/10/08 09:46:34;;;;;;;9.90;1.90;;;;;;;;;;5070890;28;20575;-60
2023/10/08 09:49:01;;;;;;;8.87;1.40;;;;;;;;;;5071000;28;20138;-60
2023/10/08 09:51:31;;;;;;;12.27;2.33;;;;;;;;;;5070848;28;20036;-60
2023/10/08 09:54:13;;;;;;;12.43;1.40;;;;;;;;;;5070837;28;20459;-60
2023/10/08 09:56:39;;;;;;;8.60;1.97;;;;;;;;;;5058883;28;20052;-60
2023/10/08 09:59:07;;;;;;;3.83;1.00;;;;;;;;;;5055944;28;20041;-60
2023/10/08 10:01:33;;;;;;;7.13;1.10;;;;;;;;;;5051162;28;20048;-60
2023/10/08 10:04:00;;;;;;;6.23;1.43;;;;;;;;;;5059236;28;20062;-60
2023/10/08 10:06:27;;;;;;;5.83;1.20;;;;;;;;;;5070268;28;20045;-60
2023/10/08 10:08:57;;;;;;;6.93;1.33;;;;;;;;;;5069440;28;20037;-60
2023/10/08 10:11:26;;;;;;;10.27;1.20;;;;;;;;;;5067576;28;20172;-60
2023/10/08 10:13:59;;;;;;;7.57;1.67;;;;;;;;;;5057456;28;20055;-60
2023/10/08 10:16:26;;;;;;;5.30;1.20;;;;;;;;;;5059775;28;20041;-60
2023/10/08 10:18:56;;;;;;;12.40;1.60;;;;;;;;;;5050677;28;20045;-60
2023/10/08 10:21:27;;;;;;;10.47;1.70;;;;;;;;;;5068737;28;20094;-60
2023/10/08 10:23:54;;;;;;;9.60;2.10;;;;;;;;;;5069135;28;20483;-60
2023/10/08 10:26:31;;;;;;;7.83;1.40;;;;;;;;;;5067744;28;20561;-60
2023/10/08 10:29:15;;;;;;;8.57;1.80;;;;;;;;;;5064891;28;20049;-60
2023/10/08 10:31:46;;;;;;;7.50;1.90;;;;;;;;;;5068693;28;20086;-60
2023/10/08 10:34:13;;;;;;;8.37;2.00;;;;;;;;;;5058860;28;20045;-61
2023/10/08 10:36:40;;;;;;;6.10;1.30;;;;;;;;;;5068212;28;20056;-61
2023/10/08 10:39:15;;;;;;;6.80;1.40;;;;;;;;;;5055023;28;20056;-60
2023/10/08 10:41:42;;;;;;;10.93;2.20;;;;;;;;;;5062323;28;20049;-63
2023/10/08 10:44:08;;;;;;;5.60;1.30;;;;;;;;;;5062840;28;20073;-62
2023/10/08 10:46:41;;;;;;;10.27;1.73;;;;;;;;;;5050798;28;20049;-60
2023/10/08 10:49:18;;;;;;;5.47;1.35;;;;;;;;;;5050503;28;20447;-60
2023/10/08 10:51:44;;;;;;;5.93;1.70;;;;;;;;;;5050157;28;20044;-60
2023/10/08 10:54:10;;;;;;;4.23;1.33;;;;;;;;;;5050782;28;20502;-60
2023/10/08 10:56:44;;;;;;;4.70;1.20;;;;;;;;;;5050375;28;20044;-60
2023/10/08 10:59:26;;;;;;;8.67;1.40;;;;;;;;;;5049509;28;20045;-61
2023/10/08 11:01:52;;;;;;;9.67;1.50;;;;;;;;;;5050599;28;20045;-61
2023/10/08 11:04:20;;;;;;;8.20;1.70;;;;;;;;;;5052712;28;20071;-60
2023/10/08 11:06:47;;;;;;;5.00;1.87;;;;;;;;;;5056647;28;20091;-61
2023/10/08 11:09:22;;;;;;;6.77;1.60;;;;;;;;;;5070862;28;20410;-60
2023/10/08 11:11:54;;;;;;;4.97;1.80;;;;;;;;;;5069734;28;20044;-61
2023/10/08 11:14:21;;;;;;;3.70;1.30;;;;;;;;;;5069339;28;20114;-62
2023/10/08 11:16:48;;;;;;;10.17;1.80;;;;;;;;;;5069393;28;20368;-62
2023/10/08 11:19:15;;;;;;;12.83;1.80;;;;;;;;;;5061545;28;20045;-62
2023/10/08 11:21:53;;;;;;;8.07;1.60;;;;;;;;;;5069575;28;20242;-62
2023/10/08 11:24:37;;;;;;;7.27;1.60;;;;;;;;;;5069583;28;20127;-62
2023/10/08 11:27:15;;;;;;;;;;;;;;;;;;5069115;28;20048;-62
2023/10/08 11:29:42;;;;;;;7.50;1.50;;;;;;;;;;5069441;28;20002;-62
2023/10/08 11:32:12;;;;;;;7.73;1.60;;;;;;;;;;5069211;28;20135;-60
2023/10/08 11:34:39;;;;;;;7.40;1.60;;;;;;;;;;5068779;28;20056;-59
2023/10/08 11:37:19;;;;;;;6.93;1.57;;;;;;;;;;5061159;28;20472;-61
2023/10/08 11:39:46;;;;;;;4.13;1.43;;;;;;;;;;5062129;28;20044;-61
2023/10/08 11:44:59;;;;;;;7.83;1.90;;;;;;;;;;5062594;28;20044;-61
2023/10/08 11:47:30;;;;;;;6.87;1.50;;;;;;;;;;5056317;28;20095;-63
2023/10/08 11:50:19;;;;;;;8.47;1.67;;;;;;;;;;5049227;28;20079;-61
2023/10/08 11:52:43;;;;;;;10.63;2.87;;;;;;;;;;5054363;28;20080;-61
2023/10/08 11:55:10;;;;;;;9.03;1.50;;;;;;;;;;5068544;28;20048;-60
2023/10/08 11:57:36;;;;;;;6.27;1.97;;;;;;;;;;5069099;28;20040;-61
2023/10/08 12:00:18;;;;;;;6.50;1.40;;;;;;;;;;5066057;28;20809;-60
2023/10/08 12:02:44;;;;;;;8.23;1.80;;;;;;;;;;5069035;28;20049;-61
2023/10/08 12:05:19;;;;;;;5.73;1.60;;;;;;;;;;5068164;28;20089;-60
2023/10/08 12:07:46;;;;;;;6.37;1.27;;;;;;;;;;5066784;28;20115;-61
2023/10/08 12:10:13;;;;;;;9.77;2.40;;;;;;;;;;5064038;28;20049;-61
2023/10/08 12:12:40;;;;;;;7.43;1.87;;;;;;;;;;5056912;28;20132;-61
2023/10/08 12:15:09;;;;;;;4.70;1.23;;;;;;;;;;5048068;28;20072;-61
2023/10/08 12:17:39;;;;;;;8.87;1.80;;;;;;;;;;5046629;28;20350;-61
2023/10/08 12:20:22;;;;;;;8.57;2.13;;;;;;;;;;5047107;28;20045;-61
2023/10/08 12:22:48;;;;;;;;;;;;;;;;;;5048974;28;20049;-61
2023/10/08 12:25:14;;;;;;;7.37;1.70;;;;;;;;;;5048083;28;19975;-61
2023/10/08 12:27:40;;;;;;;14.10;2.17;;;;;;;;;;5048308;28;20044;-61
2023/10/08 12:30:10;;;;;;;5.87;1.27;;;;;;;;;;5051025;28;20063;-61
2023/10/08 12:32:42;;;;;;;6.87;1.60;;;;;;;;;;5058856;28;20056;-61
2023/10/08 12:35:15;;;;;;;6.60;1.60;;;;;;;;;;5047748;28;20064;-61
2023/10/08 12:37:44;;;;;;;6.60;1.75;;;;;;;;;;5047134;28;20057;-61
2023/10/08 12:40:22;;;;;;;5.23;1.60;;;;;;;;;;5047727;28;20566;-61
2023/10/08 12:42:52;;;;;;;5.77;1.63;;;;;;;;;;5047720;28;20127;-62
2023/10/08 12:45:21;;;;;;;8.20;1.53;;;;;;;;;;5051162;28;20119;-62
2023/10/08 12:47:51;;;;;;;4.77;1.53;;;;;;;;;;5046117;28;20053;-62
2023/10/08 12:50:23;;;;;;;10.80;2.33;;;;;;;;;;5063321;28;20576;-62
2023/10/08 12:52:55;;;;;;;7.22;1.42;;;;;;;;;;5063728;28;20048;-61
2023/10/08 12:55:24;;;;;;;9.40;2.30;;;;;;;;;;5046237;28;20519;-61
2023/10/08 12:57:55;;;;;;;5.83;1.40;;;;;;;;;;5045349;28;20044;-61
2023/10/08 13:00:23;;;;;;;10.80;1.73;;;;;;;;;;5045796;28;20140;-61
2023/10/08 13:02:53;;;;;;;6.83;1.50;;;;;;;;;;5051016;28;20131;-61
2023/10/08 13:05:26;;;;;;;8.85;1.88;;;;;;;;;;5051366;28;20045;-61
2023/10/08 13:07:54;;;;;;;6.83;1.43;;;;;;;;;;5051797;28;20091;-62
2023/10/08 13:10:21;;;;;;;5.83;1.60;;;;;;;;;;5051016;28;20112;-61
2023/10/08 13:12:48;;;;;;;13.33;1.93;;;;;;;;;;5050406;28;20048;-61
2023/10/08 13:15:14;;;;;;;7.60;2.00;;;;;;;;;;5050387;28;20132;-61
2023/10/08 13:17:45;;;;;;;4.40;1.40;;;;;;;;;;5050828;28;20052;-61
2023/10/08 13:20:11;;;;;;;7.10;2.07;;;;;;;;;;5051294;28;20055;-61
2023/10/08 13:22:38;;;;;;;8.90;1.70;;;;;;;;;;5051085;28;20067;-61
2023/10/08 13:25:04;;;;;;;5.93;1.60;;;;;;;;;;5061977;28;20114;-61
2023/10/08 13:27:30;;;;;;;7.33;1.77;;;;;;;;;;5051362;28;20041;-61
2023/10/08 13:29:58;;;;;;;9.00;2.20;;;;;;;;;;5065272;28;20076;-61
2023/10/08 13:32:24;;;;;;;6.57;1.50;;;;;;;;;;5066371;28;20053;-61
2023/10/08 13:34:50;;;;;;;7.70;1.50;;;;;;;;;;5050591;28;20044;-61
2023/10/08 13:37:16;;;;;;;8.70;1.63;;;;;;;;;;5050971;28;20059;-61
2023/10/08 13:39:42;;;;;;;11.17;1.90;;;;;;;;;;5061232;28;20068;-61
2023/10/08 13:42:08;;;;;;;6.43;1.50;;;;;;;;;;5071755;28;20410;-61
2023/10/08 13:44:35;;;;;;;5.57;1.40;;;;;;;;;;5070396;28;20041;-61
2023/10/08 13:47:05;;;;;;;6.03;1.80;;;;;;;;;;5069906;28;20056;-61
2023/10/08 13:49:32;;;;;;;8.77;1.77;;;;;;;;;;5070517;28;20515;-61
2023/10/08 13:51:58;;;;;;;8.17;1.83;;;;;;;;;;5070123;28;20085;-61
2023/10/08 13:54:39;;;;;;;7.20;1.50;;;;;;;;;;5070248;28;20128;-62
2023/10/08 13:57:08;;;;;;;8.83;1.77;;;;;;;;;;5060259;28;20463;-61
2023/10/08 13:59:34;;;;;;;6.33;1.50;;;;;;;;;;5052971;28;20155;-62
2023/10/08 14:02:14;;;;;;;8.20;1.90;;;;;;;;;;5049851;28;20082;-62
2023/10/08 14:04:43;;;;;;;3.37;1.10;;;;;;;;;;5056026;28;20086;-59
2023/10/08 14:07:10;;;;;;;6.53;1.40;;;;;;;;;;5051562;28;20120;-59
2023/10/08 14:09:41;;;;;;;4.60;1.37;;;;;;;;;;5057446;28;20085;-59
2023/10/08 14:12:09;;;;;;;6.33;1.47;;;;;;;;;;5054721;28;21027;-60
2023/10/08 14:14:35;;;;;;;9.73;1.60;;;;;;;;;;5049574;28;20087;-60
2023/10/08 14:17:08;;;;;;;7.20;1.67;;;;;;;;;;5049784;28;20388;-60
2023/10/08 14:19:43;;;;;;;6.15;2.10;;;;;;;;;;5068644;28;20049;-60
2023/10/08 14:22:13;;;;;;;5.27;1.60;;;;;;;;;;5066414;28;20127;-60
2023/10/08 14:24:39;;;;;;;7.30;1.70;;;;;;;;;;5049664;28;20085;-60
2023/10/08 14:27:15;;;;;;;6.83;1.63;;;;;;;;;;5055093;28;20076;-60
2023/10/08 14:29:44;;;;;;;9.57;3.03;;;;;;;;;;5051082;28;20045;-60
2023/10/08 14:32:11;;;;;;;8.17;1.57;;;;;;;;;;5049804;28;20098;-60
2023/10/08 14:45:26;;;;;;;5.07;1.87;;;;;;;;;;5049325;28;20048;-61
2023/10/08 14:47:53;;;;;;;5.70;1.60;;;;;;;;;;5049406;28;20117;-61
2023/10/08 14:50:19;;;;;;;5.90;1.40;;;;;;;;;;5049271;28;20132;-61
2023/10/08 14:52:46;;;;;;;7.57;1.37;;;;;;;;;;5048700;28;20041;-61
2023/10/08 14:55:12;;;;;;;6.97;1.77;;;;;;;;;;5049255;28;20055;-61
2023/10/08 14:57:39;;;;;;;6.10;1.30;;;;;;;;;;5048901;28;20049;-61
2023/10/08 15:00:05;;;;;;;4.03;2.07;;;;;;;;;;5049171;28;20045;-61
2023/10/08 15:02:33;;;;;;;7.13;2.20;;;;;;;;;;5049094;28;20480;-61
2023/10/08 15:05:00;;;;;;;5.37;1.90;;;;;;;;;;5048865;28;20060;-62
2023/10/08 15:07:27;;;;;;;6.73;1.97;;;;;;;;;;5048661;28;20060;-61
2023/10/08 15:09:57;;;;;;;7.60;1.97;;;;;;;;;;5048880;28;20405;-61
2023/10/08 15:12:25;;;;;;;9.83;1.50;;;;;;;;;;5048697;28;20040;-62
2023/10/08 15:14:51;;;;;;;5.70;1.63;;;;;;;;;;5048742;28;20124;-61
2023/10/08 15:17:17;;;;;;;5.07;1.80;;;;;;;;;;5049005;28;20115;-60
2023/10/08 15:19:43;;;;;;;5.60;1.50;;;;;;;;;;5048064;28;20045;-60
2023/10/08 15:22:09;;;;;;;6.50;1.50;;;;;;;;;;5048555;28;20041;-59
2023/10/08 15:24:36;;;;;;;6.53;1.93;;;;;;;;;;5048440;28;20049;-60
2023/10/08 15:27:05;;;;;;;6.53;1.53;;;;;;;;;;5048552;28;20152;-59
2023/10/08 15:29:33;;;;;;;4.70;1.57;;;;;;;;;;5048062;28;20052;-59
2023/10/08 15:31:59;;;;;;;4.70;1.87;;;;;;;;;;5048417;28;20491;-60
2023/10/08 15:34:26;;;;;;;5.60;1.60;;;;;;;;;;5047923;28;20483;-60
2023/10/08 15:36:56;;;;;;;4.00;1.70;;;;;;;;;;5048191;28;20049;-60
2023/10/08 15:39:22;;;;;;;5.43;1.73;;;;;;;;;;5048422;28;20048;-61
2023/10/08 15:41:52;;;;;;;6.10;1.57;;;;;;;;;;5048571;28;20041;-60
2023/10/08 15:44:20;;;;;;;6.40;1.90;;;;;;;;;;5048519;28;20053;-60
2023/10/08 15:46:46;;;;;;;10.97;1.90;;;;;;;;;;5047918;28;20400;-60
2023/10/08 15:49:12;;;;;;;8.23;2.00;;;;;;;;;;5048410;28;20056;-60
2023/10/08 15:51:39;;;;;;;7.80;2.00;;;;;;;;;;5048487;28;20045;-60
2023/10/08 15:54:05;;;;;;;4.50;1.87;;;;;;;;;;5047636;28;20053;-60
2023/10/08 15:56:32;;;;;;;3.43;1.57;;;;;;;;;;5048118;28;20044;-60
2023/10/08 15:58:58;;;;;;;7.27;2.17;;;;;;;;;;5048221;28;20099;-61
2023/10/08 16:01:26;;;;;;;6.10;1.90;;;;;;;;;;5048388;28;20041;-60
2023/10/08 16:03:52;;;;;;;5.17;1.90;;;;;;;;;;5047671;28;20068;-60
2023/10/08 16:06:18;;;;;;;6.03;2.00;;;;;;;;;;5048194;28;20578;-60
2023/10/08 16:08:48;;;;;;;7.23;1.90;;;;;;;;;;5047970;28;20040;-60